Prospect Creek, Prospect Cree, AK

7:01 PM AKDT on August 28, 2015 (GMT -0800)
Bettles | | Change Station
CLOSE
Current Station
Airport
Location: Bettles,
Elevation: 643 ft
Nearby Weather Stations

Elev 643 ft 66.91 °N, 151.53 °W | Updated 1 hour ago

Scattered Clouds
Scattered Clouds
45 °F
Feels Like 44 °F
N
4
Wind Variable Wind from SW

Today
High -- | Low -- °F
--% Chance of Precip.
Yesterday
High -- | Low -- °F
Precip. -- in
6:20 AM 9:44 PM
Waxing Gibbous, 99% visible
Pressure 29.75 in
Visibility 10.0 miles
Clouds Few 2200 ft
Few 4500 ft
Scattered Clouds 6000 ft
Windchill 44 °F
Dew Point 36 °F
Humidity 71%
Rainfall 0.02 in
Snow Depth Not available.
UV 1 out of 12
Pollen Not available.
Air Quality Not available.
Flu Activity Not available.
METAR PABT 290153Z 23003KT 10SM FEW022 FEW045 SCT060 07/02 A2971 RMK RAE41 SLP073 P0001 T00720022 VIA AUTODIAL
Pressure 29.75 in
Visibility 10.0 miles
Clouds Few 2200 ft
Few 4500 ft
Scattered Clouds 6000 ft
Windchill 44 °F
Dew Point 36 °F
Humidity 71%
Rainfall 0.02 in
Snow Depth Not available.
UV 1 out of 12
Pollen Not available.
Air Quality Not available.
Flu Activity Not available.
METAR PABT 290153Z 23003KT 10SM FEW022 FEW045 SCT060 07/02 A2971 RMK RAE41 SLP073 P0001 T00720022 VIA AUTODIAL

10-Day Weather Forecast

×

Almanac

Astronomy

Aug. 28, 2015 Rise Set
Actual Time
Civil Twilight
Nautical Twilight
Astronomical Twilight
Moon
Length of Visible Light
Length of Day
Tomorrow will be .
, % of the Moon is Illuminated

Today's Extremes

State Highs State Lows

Community

WunderPhotos

Upload Photos

1,850,593 photos uploaded!

WunderBlogs® & News

Nearby

Air Quality

  Air Quality AQ Index Pollutant
Not available.

Snow Depth

Station Depth Elevation

Earthquake Activity

City Distance Mag. Time & Date
Minimum magnitude displayed is 2.5.

Coastal Water Temperatures

Place Temperature

Stations

Nearby Weather Stations

Station Location Temp. Windchill Dew Point Humidity Wind Precip. Elev Updated Type